Time;durP1;ratioP1;P1;durP2;ratioP2;P2;SDS_P1;SDS_P2;PMS_P1;PMS_P2;Temp;Humidity;BMP_temperature;BMP_pressure;BME280_temperature;BME280_humidity;BME280_pressure;Samples;Min_cycle;Max_cycle;Signal;HPM_P1;HPM_P2
2023/01/09 00:04:50;;;;;;;0.70;0.43;;;;;;;4.36;95.43;99257.94;9900411;29;20055;-88
2023/01/09 00:10:01;;;;;;;0.47;0.35;;;;;;;4.41;95.43;99251.16;9930122;29;20126;-88
2023/01/09 00:15:11;;;;;;;0.93;0.50;;;;;;;4.45;95.40;99240.81;9933024;29;20071;-87
2023/01/09 00:20:24;;;;;;;0.52;0.32;;;;;;;4.50;95.52;99232.25;9917278;29;20523;-87
2023/01/09 00:25:35;;;;;;;0.50;0.50;;;;;;;4.54;95.42;99233.19;9924938;29;20104;-87
2023/01/09 00:30:44;;;;;;;0.20;0.20;;;;;;;4.60;95.44;99222.94;9924457;29;20579;-87
2023/01/09 00:35:59;;;;;;;0.20;0.20;;;;;;;4.64;95.21;99208.28;9918640;29;20074;-88
2023/01/09 00:41:23;;;;;;;0.15;0.13;;;;;;;4.73;95.17;99214.50;9926510;29;20461;-88
2023/01/09 00:46:52;;;;;;;0.47;0.38;;;;;;;4.87;95.21;99222.47;9923767;29;20512;-87
2023/01/09 00:52:04;;;;;;;0.30;0.30;;;;;;;5.02;94.82;99218.38;9931789;29;20054;-87
2023/01/09 00:57:28;;;;;;;2.28;0.40;;;;;;;5.10;94.70;99209.84;9932570;29;20055;-87
2023/01/09 01:02:46;;;;;;;0.28;0.20;;;;;;;5.13;94.47;99209.91;9931262;29;20047;-88
2023/01/09 01:07:54;;;;;;;0.10;0.10;;;;;;;5.13;94.34;99209.91;9916353;29;20058;-88
2023/01/09 01:20:11;;;;;;;0.50;0.22;;;;;;;5.17;94.19;99208.19;11207746;24;20073;-87
2023/01/09 01:25:15;;;;;;;0.20;0.20;;;;;;;5.15;94.42;99209.91;9936043;29;20054;-87
2023/01/09 01:30:19;;;;;;;0.38;0.35;;;;;;;5.11;94.65;99216.75;9944915;29;20063;-87
2023/01/09 01:35:23;;;;;;;1.02;0.50;;;;;;;5.12;94.97;99218.53;9936764;29;20062;-87
2023/01/09 01:40:28;;;;;;;0.10;0.10;;;;;;;5.05;95.18;99208.91;9941537;29;20054;-87
2023/01/09 01:45:34;;;;;;;0.22;0.22;;;;;;;5.05;95.43;99208.91;9931193;29;20066;-87
2023/01/09 01:50:47;;;;;;;0.10;0.10;;;;;;;5.05;95.86;99208.03;9943275;29;20063;-87
2023/01/09 01:56:01;;;;;;;0.20;0.20;;;;;;;5.07;96.00;99202.00;9936527;29;20573;-87
2023/01/09 02:01:07;;;;;;;0.08;0.08;;;;;;;5.08;96.29;99218.47;9942360;29;20082;-88
2023/01/09 02:06:18;;;;;;;1.48;0.73;;;;;;;5.14;96.51;99218.53;9937767;29;20055;-87
2023/01/09 02:11:21;;;;;;;0.10;0.10;;;;;;;5.19;96.82;99221.19;9930045;29;20118;-87
2023/01/09 02:16:44;;;;;;;0.45;0.20;;;;;;;5.23;97.00;99220.41;9936382;29;20145;-87
2023/01/09 02:22:16;;;;;;;0.20;0.20;;;;;;;5.27;97.11;99220.47;9941793;29;20051;-87
2023/01/09 02:27:19;;;;;;;;;;;;;;;5.29;97.56;99218.75;9941250;29;20103;-88
2023/01/09 02:32:42;;;;;;;0.28;0.22;;;;;;;5.34;97.62;99215.34;9953559;29;19928;-88
2023/01/09 02:38:16;;;;;;;0.38;0.32;;;;;;;5.38;97.82;99206.75;9944997;29;20091;-87
2023/01/09 02:43:18;;;;;;;0.45;0.40;;;;;;;5.44;98.06;99199.91;9918102;29;20511;-87
2023/01/09 02:48:21;;;;;;;0.13;0.13;;;;;;;5.49;98.12;99200.84;9945865;29;20451;-87
2023/01/09 02:53:43;;;;;;;0.40;0.40;;;;;;;5.54;98.38;99203.50;9946534;29;20081;-87
2023/01/09 02:59:07;;;;;;;0.40;0.30;;;;;;;5.59;98.41;99190.56;9941130;29;20243;-87
2023/01/09 03:04:35;;;;;;;0.32;0.32;;;;;;;5.60;98.59;99185.38;9947782;29;20073;-87
2023/01/09 03:09:41;;;;;;;0.47;0.30;;;;;;;5.61;98.75;99189.69;9924896;29;20047;-86
2023/01/09 03:14:55;;;;;;;0.80;0.57;;;;;;;5.64;98.99;99212.25;9926895;29;20428;-86
2023/01/09 03:19:57;;;;;;;;;;;;;;;5.64;99.07;99213.16;9934024;29;20057;-88
2023/01/09 03:24:59;;;;;;;0.10;0.10;;;;;;;5.46;99.14;99206.00;9934437;29;19929;-86
2023/01/09 03:30:05;;;;;;;0.20;0.20;;;;;;;5.46;98.60;99200.81;9931942;29;20141;-85
2023/01/09 03:35:07;;;;;;;0.10;0.10;;;;;;;5.48;98.61;99178.31;9932781;29;20486;-86
2023/01/09 03:40:09;;;;;;;0.10;0.10;;;;;;;5.45;98.50;99183.47;9935082;29;20061;-87
2023/01/09 03:45:11;;;;;;;0.90;0.47;;;;;;;5.42;98.36;99183.44;9960481;29;20055;-87
2023/01/09 03:50:20;;;;;;;0.30;0.20;;;;;;;5.44;98.09;99186.91;9940562;29;20139;-89
2023/01/09 03:56:30;;;;;;;;;;;;;;;;;;;;;
2023/01/09 06:16:28;;;;;;;0.20;0.20;;;;;;;3.89;98.40;99309.75;10272974;24;20139;-89
2023/01/09 06:22:09;;;;;;;0.15;0.15;;;;;;;3.82;98.36;99318.22;9963546;24;20082;-87
2023/01/09 06:27:45;;;;;;;0.10;0.10;;;;;;;3.75;98.37;99319.81;9939966;29;20489;-88
2023/01/09 06:38:47;;;;;;;0.20;0.20;;;;;;;3.69;98.50;99322.25;9956471;29;20074;-88
2023/01/09 06:44:58;;;;;;;0.28;0.28;;;;;;;3.64;98.52;99329.06;9957360;29;20519;-88
2023/01/09 06:57:24;;;;;;;1.05;0.20;;;;;;;3.57;98.79;99353.94;9933581;29;20042;-87
2023/01/09 07:03:48;;;;;;;0.20;0.20;;;;;;;3.46;98.76;99355.41;9927558;29;20059;-88
2023/01/09 07:09:59;;;;;;;4.22;1.75;;;;;;;3.43;98.84;99361.38;9993076;24;20082;-88
2023/01/09 07:22:18;;;;;;;0.60;0.43;;;;;;;3.79;99.16;99377.72;9836151;29;20059;-88
2023/01/09 07:47:27;;;;;;;0.20;0.20;;;;;;;4.25;99.64;99383.88;9937652;29;20066;-88
2023/01/09 08:28:35;;;;;;;0.75;0.50;;;;;;;4.47;99.68;99433.53;9900586;29;20063;-88
2023/01/09 08:34:10;;;;;;;0.20;0.20;;;;;;;4.43;99.51;99430.88;9892832;29;20138;-87
2023/01/09 08:39:31;;;;;;;;;;;;;;;;;;;;;
2023/01/09 08:50:03;;;;;;;0.45;0.38;;;;;;;4.38;99.20;99427.34;9907981;29;20208;-88
2023/01/09 08:55:11;;;;;;;0.20;0.20;;;;;;;4.31;99.25;99428.03;9913248;29;20523;-87
2023/01/09 09:00:19;;;;;;;0.82;0.82;;;;;;;4.35;99.16;99436.75;9909487;29;20063;-88
2023/01/09 09:05:36;;;;;;;0.30;0.30;;;;;;;4.38;99.06;99442.88;9888463;29;20075;-88
2023/01/09 09:10:53;;;;;;;0.20;0.20;;;;;;;4.42;99.14;99439.50;9900582;29;20063;-87
2023/01/09 09:15:55;;;;;;;1.35;0.90;;;;;;;4.53;99.00;99444.88;9897540;29;20055;-87
2023/01/09 09:20:57;;;;;;;0.68;0.50;;;;;;;4.60;98.82;99448.47;9897512;29;20117;-87
2023/01/09 09:25:59;;;;;;;0.20;0.20;;;;;;;4.67;98.96;99444.28;9899579;29;20524;-86
2023/01/09 09:31:04;;;;;;;1.08;0.93;;;;;;;4.75;98.68;99453.97;9895926;29;20138;-87
2023/01/09 09:36:17;;;;;;;0.20;0.20;;;;;;;4.80;98.64;99453.19;9905781;29;20067;-87
2023/01/09 09:47:36;;;;;;;0.40;0.40;;;;;;;4.89;98.23;99458.53;9886781;29;20232;-85
2023/01/09 09:52:59;;;;;;;0.63;0.63;;;;;;;4.97;98.03;99459.56;9927240;29;20047;-89
2023/01/09 09:58:10;;;;;;;0.47;0.47;;;;;;;5.10;98.11;99464.13;9876553;29;20055;-86
2023/01/09 10:03:30;;;;;;;0.73;0.70;;;;;;;5.22;97.90;99462.59;9891196;29;20086;-85
2023/01/09 10:08:41;;;;;;;0.15;0.15;;;;;;;5.30;97.82;99474.84;9851088;29;20048;-86
2023/01/09 10:14:08;;;;;;;0.38;0.28;;;;;;;5.38;97.61;99471.53;9882810;29;20146;-87
2023/01/09 10:19:40;;;;;;;2.22;1.48;;;;;;;5.49;97.56;99464.78;9886553;29;20051;-87
2023/01/09 10:24:51;;;;;;;0.38;0.30;;;;;;;5.57;97.27;99467.50;9898652;29;20491;-85
2023/01/09 10:30:23;;;;;;;1.50;0.93;;;;;;;5.66;97.13;99475.47;9912712;29;20075;-86
2023/01/09 10:36:00;;;;;;;1.02;0.77;;;;;;;5.68;96.97;99465.94;9895920;29;20520;-86
2023/01/09 10:41:11;;;;;;;1.63;1.38;;;;;;;5.71;96.73;99460.81;9903194;29;20078;-87
2023/01/09 10:46:24;;;;;;;3.40;1.50;;;;;;;5.78;96.69;99465.25;9885447;29;20319;-88
2023/01/09 10:51:46;;;;;;;3.97;1.25;;;;;;;5.77;96.24;99470.41;9896986;29;20349;-88
2023/01/09 10:57:01;;;;;;;2.85;1.75;;;;;;;5.76;96.29;99461.72;9902015;29;20145;-88
2023/01/09 11:02:02;;;;;;;1.55;1.00;;;;;;;5.77;96.29;99466.09;9917614;29;20046;-88
2023/01/09 11:07:16;;;;;;;1.40;1.02;;;;;;;5.77;96.27;99460.03;9911147;29;20124;-87
2023/01/09 11:12:26;;;;;;;0.93;0.63;;;;;;;5.80;96.35;99457.47;9869504;29;20043;-89
2023/01/09 11:17:28;;;;;;;2.88;1.52;;;;;;;5.89;96.50;99454.16;9908128;29;20065;-88
2023/01/09 11:22:46;;;;;;;1.27;1.00;;;;;;;5.91;96.46;99447.25;9890397;29;20071;-86
2023/01/09 11:28:05;;;;;;;1.15;0.77;;;;;;;5.90;96.43;99455.88;9889133;29;20454;-86
2023/01/09 11:33:17;;;;;;;2.40;1.08;;;;;;;5.95;96.42;99457.69;9887603;29;20440;-86
2023/01/09 11:38:19;;;;;;;0.82;0.70;;;;;;;5.99;96.26;99450.84;9890255;29;20453;-86
2023/01/09 11:43:29;;;;;;;0.88;0.57;;;;;;;6.07;96.08;99448.38;9893260;29;20113;-86
2023/01/09 11:48:37;;;;;;;0.80;0.57;;;;;;;5.96;96.01;99450.75;9868918;29;20470;-86
2023/01/09 11:53:55;;;;;;;0.40;0.40;;;;;;;5.90;96.08;99443.78;9883531;29;20142;-86
2023/01/09 11:58:58;;;;;;;0.32;0.32;;;;;;;5.89;95.70;99447.22;9882479;29;20059;-86
2023/01/09 12:04:16;;;;;;;0.63;0.50;;;;;;;5.88;95.74;99444.59;9901843;29;20116;-86
2023/01/09 12:09:31;;;;;;;0.60;0.30;;;;;;;5.92;95.67;99444.66;9897529;29;20725;-86
2023/01/09 12:14:50;;;;;;;0.30;0.30;;;;;;;6.03;95.54;99443.97;9882941;29;20517;-86
2023/01/09 12:20:15;;;;;;;0.38;0.38;;;;;;;6.08;95.77;99439.72;9891652;29;20055;-86
2023/01/09 12:25:36;;;;;;;0.60;0.32;;;;;;;6.15;95.54;99455.41;9893323;29;20063;-87
2023/01/09 12:30:46;;;;;;;0.15;0.15;;;;;;;6.09;95.25;99447.53;9908714;29;20112;-86
2023/01/09 12:36:22;;;;;;;0.90;0.73;;;;;;;6.10;95.22;99440.63;9894386;29;20107;-86
2023/01/09 12:41:51;;;;;;;0.20;0.20;;;;;;;6.04;95.04;99449.19;9912754;29;20064;-86
2023/01/09 12:47:28;;;;;;;0.77;0.35;;;;;;;6.04;94.88;99463.94;9900084;29;20105;-86
2023/01/09 12:52:41;;;;;;;1.45;0.47;;;;;;;6.05;94.79;99452.66;9902474;29;20130;-87
2023/01/09 12:57:47;;;;;;;0.50;0.50;;;;;;;6.01;95.14;99456.94;9903691;29;20064;-85
2023/01/09 13:03:03;;;;;;;0.98;0.47;;;;;;;5.97;94.92;99468.16;9902599;29;20052;-86
2023/01/09 13:08:41;;;;;;;0.20;0.20;;;;;;;5.90;94.97;99476.66;9894745;29;20532;-86
2023/01/09 13:14:02;;;;;;;0.35;0.35;;;;;;;5.81;95.25;99477.38;9916934;29;20057;-85
2023/01/09 13:19:33;;;;;;;0.20;0.20;;;;;;;5.85;95.33;99489.59;9900737;29;20549;-85
2023/01/09 13:24:35;;;;;;;;;;;;;;;5.81;95.65;99493.88;9912078;29;20051;-86
2023/01/09 13:29:41;;;;;;;1.45;0.63;;;;;;;5.83;95.83;99493.91;9895594;29;20298;-85
2023/01/09 13:34:46;;;;;;;0.20;0.20;;;;;;;5.82;96.03;99505.13;9893971;29;20071;-84
2023/01/09 13:39:56;;;;;;;0.10;0.10;;;;;;;5.81;96.30;99508.56;9893320;29;20462;-85
2023/01/09 13:45:09;;;;;;;0.30;0.30;;;;;;;5.81;96.42;99513.75;9893022;29;20047;-85
2023/01/09 13:50:25;;;;;;;0.10;0.10;;;;;;;5.83;96.52;99512.06;9904959;29;20094;-84
2023/01/09 13:55:34;;;;;;;0.93;0.77;;;;;;;5.81;96.64;99531.94;9907704;29;20055;-84
2023/01/09 14:00:36;;;;;;;0.75;0.45;;;;;;;5.75;96.83;99534.44;9872833;29;20117;-87
2023/01/09 14:05:52;;;;;;;0.47;0.40;;;;;;;5.79;96.97;99536.25;9884928;29;20082;-86
2023/01/09 14:11:17;;;;;;;0.38;0.38;;;;;;;5.86;97.22;99547.63;9901357;29;20055;-86
2023/01/09 14:16:24;;;;;;;0.32;0.32;;;;;;;5.93;97.42;99562.44;9893850;29;20051;-84
2023/01/09 14:21:40;;;;;;;0.50;0.50;;;;;;;5.88;97.64;99566.72;9895032;29;20055;-85
2023/01/09 14:26:46;;;;;;;2.80;0.90;;;;;;;5.89;97.50;99579.72;9886563;29;20055;-84
2023/01/09 14:31:48;;;;;;;1.27;0.77;;;;;;;5.92;97.92;99589.31;9892196;29;20061;-84
2023/01/09 14:36:53;;;;;;;1.40;1.00;;;;;;;5.88;97.84;99603.94;9896685;29;20485;-84
2023/01/09 14:42:05;;;;;;;0.75;0.70;;;;;;;5.88;97.76;99608.28;9886110;29;20066;-85
2023/01/09 14:47:41;;;;;;;0.32;0.32;;;;;;;5.87;97.79;99617.81;9888505;29;20054;-84
2023/01/09 14:52:54;;;;;;;1.13;0.85;;;;;;;5.82;97.73;99642.81;9894133;29;20051;-85
2023/01/09 14:58:09;;;;;;;1.27;0.75;;;;;;;5.79;97.77;99641.03;9869656;29;20070;-84
2023/01/09 15:03:10;;;;;;;0.70;0.57;;;;;;;5.79;97.82;99660.94;9902695;29;20043;-84
2023/01/09 15:08:20;;;;;;;0.63;0.50;;;;;;;5.77;98.02;99679.09;9890080;29;20529;-84
2023/01/09 15:13:33;;;;;;;1.05;0.80;;;;;;;5.74;97.75;99692.03;9891125;29;20039;-84
2023/01/09 15:18:41;;;;;;;1.02;0.57;;;;;;;5.75;97.94;99706.78;9896704;29;20058;-83
2023/01/09 15:23:43;;;;;;;3.33;1.40;;;;;;;5.76;98.23;99698.13;9882789;29;20051;-84
2023/01/09 15:28:44;;;;;;;0.22;0.22;;;;;;;5.74;97.85;99702.41;9908135;29;20069;-84
2023/01/09 15:33:47;;;;;;;2.25;1.10;;;;;;;5.75;98.08;99726.66;9889674;29;20055;-84
2023/01/09 15:38:50;;;;;;;1.65;1.17;;;;;;;5.76;98.06;99733.63;9893400;29;20048;-84
2023/01/09 15:43:51;;;;;;;0.65;0.52;;;;;;;5.74;97.89;99749.19;9897976;29;20063;-84
2023/01/09 15:48:53;;;;;;;2.17;1.25;;;;;;;5.78;98.17;99766.59;9903340;29;20055;-84
2023/01/09 15:53:57;;;;;;;0.95;0.77;;;;;;;5.76;98.20;99783.84;9912393;29;20138;-85
2023/01/09 15:58:59;;;;;;;1.48;0.57;;;;;;;5.74;98.09;99782.94;9895688;29;20059;-85
2023/01/09 16:04:10;;;;;;;0.38;0.38;;;;;;;5.77;97.84;99798.59;9911947;29;20138;-85
2023/01/09 16:09:14;;;;;;;;;;;;;;;5.75;98.18;99810.69;9896615;29;20054;-85
2023/01/09 16:14:23;;;;;;;1.15;0.70;;;;;;;5.72;98.26;99821.00;9871515;29;20735;-85
2023/01/09 16:19:44;;;;;;;1.40;1.02;;;;;;;5.74;98.18;99821.03;9884626;29;20366;-85
2023/01/09 16:24:47;;;;;;;0.90;0.55;;;;;;;5.70;98.25;99837.41;9883809;29;20052;-84
2023/01/09 16:29:53;;;;;;;0.63;0.55;;;;;;;5.69;98.12;99838.22;9896798;29;20051;-84
2023/01/09 16:35:00;;;;;;;;;;;;;;;5.65;98.18;99845.97;9899123;29;20509;-85
2023/01/09 16:40:21;;;;;;;0.88;0.57;;;;;;;5.64;98.16;99867.59;9903903;29;19979;-85
2023/01/09 16:45:24;;;;;;;3.00;1.38;;;;;;;5.62;98.13;99876.19;9901683;29;20146;-84
2023/01/09 16:50:30;;;;;;;1.63;0.88;;;;;;;5.63;98.00;99878.81;9901341;29;20293;-86
2023/01/09 18:22:30;;;;;;;1.55;1.35;;;;;;;5.37;99.18;100046.97;9886851;29;20074;-88
2023/01/09 18:27:53;;;;;;;1.88;1.55;;;;;;;5.35;99.11;100043.47;9922203;29;20050;-89
2023/01/09 18:39:04;;;;;;;1.13;0.93;;;;;;;5.37;99.34;100067.72;9910446;29;20054;-88
2023/01/09 18:44:24;;;;;;;3.58;2.10;;;;;;;5.36;99.47;100080.69;9912488;29;20051;-88
2023/01/09 18:49:44;;;;;;;4.65;2.97;;;;;;;5.39;99.36;100089.44;9919547;29;20455;-87
2023/01/09 18:55:24;;;;;;;2.17;1.27;;;;;;;5.38;99.38;100086.81;9917300;29;20055;-87
2023/01/09 19:00:31;;;;;;;6.47;2.05;;;;;;;5.41;99.32;100103.34;9928973;29;20809;-87
2023/01/09 19:05:42;;;;;;;2.20;1.58;;;;;;;5.40;99.27;100105.88;9927602;29;20138;-87
2023/01/09 19:10:57;;;;;;;5.05;1.23;;;;;;;5.38;99.18;100112.78;9920297;29;20115;-88
2023/01/09 19:16:14;;;;;;;1.90;1.23;;;;;;;5.32;99.02;100127.31;9931499;29;20047;-87
2023/01/09 19:21:26;;;;;;;0.85;0.40;;;;;;;5.28;98.80;100140.19;9926617;29;20082;-87
2023/01/09 19:26:29;;;;;;;1.17;1.08;;;;;;;5.23;98.54;100152.16;9922986;29;20142;-87
2023/01/09 19:31:34;;;;;;;0.95;0.88;;;;;;;5.22;98.45;100148.66;9932547;29;20058;-86
2023/01/09 19:36:39;;;;;;;3.75;0.95;;;;;;;5.21;98.52;100148.63;9928338;29;20050;-87
2023/01/09 19:41:42;;;;;;;0.40;0.30;;;;;;;5.18;98.25;100158.91;9925376;29;20067;-87
2023/01/09 19:46:43;;;;;;;0.28;0.25;;;;;;;5.20;98.27;100178.03;9924733;29;20047;-87
2023/01/09 19:51:49;;;;;;;0.30;0.30;;;;;;;5.19;98.56;100186.66;9924411;29;20058;-86
2023/01/09 19:56:51;;;;;;;0.47;0.47;;;;;;;5.23;98.13;100193.69;9902870;29;20107;-87
2023/01/09 20:01:54;;;;;;;0.43;0.32;;;;;;;5.24;98.14;100205.81;9932271;29;20070;-87
2023/01/09 20:07:04;;;;;;;1.38;1.08;;;;;;;5.23;98.20;100209.28;9924087;29;20047;-87
2023/01/09 20:12:06;;;;;;;0.35;0.35;;;;;;;5.19;98.04;100228.16;9925460;29;20484;-87
2023/01/09 20:17:07;;;;;;;1.20;0.70;;;;;;;5.13;97.94;100242.75;9924864;29;20059;-87
2023/01/09 20:22:10;;;;;;;0.10;0.10;;;;;;;5.14;97.98;100257.47;9924556;29;20253;-87
2023/01/09 20:27:12;;;;;;;0.20;0.20;;;;;;;5.13;97.93;100262.59;9925911;29;20067;-87
2023/01/09 20:32:14;;;;;;;0.32;0.10;;;;;;;5.06;98.09;100265.84;9924254;29;20162;-86
2023/01/09 20:37:16;;;;;;;0.30;0.30;;;;;;;4.97;98.01;100258.66;9925020;29;20058;-86
2023/01/09 20:42:20;;;;;;;0.20;0.20;;;;;;;4.87;97.80;100279.97;9928596;29;20063;-87
2023/01/09 20:47:22;;;;;;;0.52;0.52;;;;;;;4.78;98.00;100293.50;9932107;29;20529;-87
2023/01/09 20:52:23;;;;;;;0.65;0.50;;;;;;;4.67;97.85;100298.34;9922670;29;20198;-87
2023/01/09 20:57:26;;;;;;;1.45;0.85;;;;;;;4.59;97.99;100315.34;9924043;29;20417;-87
2023/01/09 21:02:27;;;;;;;0.68;0.68;;;;;;;4.51;97.89;100320.28;9924826;29;20062;-87
2023/01/09 21:07:29;;;;;;;0.20;0.20;;;;;;;4.47;97.99;100333.97;9933773;29;20319;-86
2023/01/09 21:12:34;;;;;;;1.08;0.52;;;;;;;4.35;98.23;100339.59;9931313;29;20093;-86
2023/01/09 21:17:38;;;;;;;1.48;0.68;;;;;;;4.30;98.17;100343.75;9930449;29;20051;-86
2023/01/09 21:22:39;;;;;;;0.75;0.60;;;;;;;4.24;98.18;100356.50;9930606;29;20749;-86
2023/01/09 21:27:44;;;;;;;0.10;0.10;;;;;;;4.19;98.37;100366.72;9931590;29;20669;-87
2023/01/09 21:32:46;;;;;;;0.20;0.20;;;;;;;4.11;98.48;100375.03;9931166;29;20431;-87
2023/01/09 21:37:47;;;;;;;0.73;0.63;;;;;;;4.06;98.57;100404.22;9929904;29;20058;-87
2023/01/09 21:48:09;;;;;;;;;;;;;;;4.00;98.68;100421.28;9931246;29;20061;-86
2023/01/09 21:53:11;;;;;;;0.30;0.30;;;;;;;4.02;98.68;100432.56;9928297;29;20031;-87
2023/01/09 21:58:13;;;;;;;0.98;0.65;;;;;;;4.04;99.23;100434.41;9930234;29;20051;-87
2023/01/09 22:03:17;;;;;;;0.68;0.60;;;;;;;4.03;99.00;100445.56;9929429;29;20325;-86
2023/01/09 22:08:19;;;;;;;0.47;0.47;;;;;;;4.04;98.91;100457.72;9929213;29;20167;-87
2023/01/09 22:13:20;;;;;;;0.43;0.43;;;;;;;3.99;99.25;100459.22;9925662;29;20124;-86
2023/01/09 22:18:22;;;;;;;0.15;0.15;;;;;;;3.97;99.09;100472.97;9924144;29;20053;-86
2023/01/09 22:23:24;;;;;;;1.55;0.85;;;;;;;3.90;99.33;100487.38;9927768;29;20212;-86
2023/01/09 22:28:25;;;;;;;0.77;0.50;;;;;;;3.86;99.35;100480.31;9927164;29;20065;-86
2023/01/09 22:33:27;;;;;;;0.85;0.65;;;;;;;3.80;99.40;100498.19;9919880;29;20533;-86
2023/01/09 22:38:29;;;;;;;0.43;0.43;;;;;;;3.76;99.25;100517.03;9928459;29;20080;-87
2023/01/09 22:43:31;;;;;;;0.88;0.80;;;;;;;3.77;99.47;100509.34;9928305;29;20483;-86
2023/01/09 22:48:35;;;;;;;0.98;0.80;;;;;;;3.71;99.38;100517.72;9927103;29;20049;-86
2023/01/09 22:53:37;;;;;;;1.50;1.25;;;;;;;3.64;99.40;100531.25;9928981;29;20149;-87
2023/01/09 22:58:39;;;;;;;1.20;0.80;;;;;;;3.64;99.50;100539.00;9927968;29;20046;-86
2023/01/09 23:03:41;;;;;;;6.05;1.30;;;;;;;3.65;99.58;100540.78;9931415;29;20065;-86
2023/01/09 23:08:43;;;;;;;1.13;0.65;;;;;;;3.63;99.39;100552.78;9931194;29;20115;-87
2023/01/09 23:13:44;;;;;;;2.63;1.00;;;;;;;3.65;99.65;100558.03;9927338;29;20085;-86
2023/01/09 23:18:46;;;;;;;0.38;0.38;;;;;;;3.60;99.77;100563.00;9926035;29;20051;-86
2023/01/09 23:23:48;;;;;;;0.22;0.22;;;;;;;3.63;100.00;100567.44;9924686;29;20054;-86
2023/01/09 23:28:49;;;;;;;0.43;0.43;;;;;;;3.66;99.98;100572.75;9925460;29;20141;-87
2023/01/09 23:33:51;;;;;;;0.75;0.52;;;;;;;3.68;99.76;100577.16;9926469;29;20149;-87
2023/01/09 23:38:53;;;;;;;0.85;0.63;;;;;;;3.65;100.00;100571.00;9926267;29;20513;-86
2023/01/09 23:43:54;;;;;;;0.50;0.50;;;;;;;3.62;99.75;100587.28;9925927;29;20061;-87
2023/01/09 23:48:56;;;;;;;0.93;0.93;;;;;;;3.64;99.89;100606.34;9925504;29;20067;-87
2023/01/09 23:53:58;;;;;;;0.45;0.38;;;;;;;3.66;100.00;100616.75;9925343;29;20102;-86
2023/01/09 23:59:00;;;;;;;0.45;0.30;;;;;;;3.74;99.88;100617.06;9927764;29;20419;-86
